Terminal Aerodrome Forecast
Issued by NWS

Home | Current Version | Previous Version | Text Only | Print | Product List | Glossary On
Versions: 1 2 3 4 5 6 7 8 9 10 11 12 13
000
FTUS45 KTFX 272300
TAFLWT
TAF
KLWT 272327Z 2800/2824 30012G22KT P6SM FEW120
     FM280200 23007KT P6SM SCT150
     FM281500 24013KT P6SM BKN100
     FM281800 28022G35KT P6SM BKN060 PROB30 2820/2824 -SHRA=

USA.gov is the U.S. government's official web portal to all federal, state and local government web resources and services.